createdAt,value
2022-10-24T00:00:58.323Z,66.32
2022-10-24T00:03:24.628Z,66.41
2022-10-24T00:05:50.984Z,66.30
2022-10-24T00:08:17.328Z,66.35
2022-10-24T00:10:43.734Z,66.44
2022-10-24T00:13:10.145Z,66.41
2022-10-24T00:15:36.421Z,66.52
2022-10-24T00:18:02.764Z,66.58
2022-10-24T00:20:29.128Z,66.58
2022-10-24T00:22:55.519Z,66.68
2022-10-24T00:25:21.899Z,66.67
2022-10-24T00:27:48.219Z,66.53
2022-10-24T00:30:14.589Z,66.78
2022-10-24T00:32:41.150Z,66.87
2022-10-24T00:35:07.280Z,66.92
2022-10-24T00:37:33.618Z,67.04
2022-10-24T00:39:59.990Z,67.04
2022-10-24T00:42:26.367Z,67.24
2022-10-24T00:44:52.697Z,67.15
2022-10-24T00:47:19.044Z,67.25
2022-10-24T00:49:45.377Z,67.04
2022-10-24T00:52:11.726Z,67.07
2022-10-24T00:54:38.047Z,67.09
2022-10-24T00:57:04.455Z,66.98
2022-10-24T00:59:30.773Z,66.89
2022-10-24T01:01:57.106Z,67.21
2022-10-24T01:04:23.417Z,67.25
2022-10-24T01:06:49.753Z,67.36
2022-10-24T01:09:16.104Z,67.40
2022-10-24T01:11:42.448Z,67.58
2022-10-24T01:14:08.793Z,67.61
2022-10-24T01:16:35.110Z,67.63
2022-10-24T01:19:01.453Z,67.66
2022-10-24T01:21:27.772Z,67.62
2022-10-24T01:23:54.173Z,67.86
2022-10-24T01:26:20.507Z,67.93
2022-10-24T01:28:46.828Z,68.02
2022-10-24T01:31:13.172Z,68.04
2022-10-24T01:33:39.490Z,68.06
2022-10-24T01:36:05.842Z,68.07
2022-10-24T01:38:32.164Z,68.06
2022-10-24T01:40:58.518Z,68.11
2022-10-24T01:43:24.842Z,68.25
2022-10-24T01:45:51.271Z,68.33
2022-10-24T01:48:17.551Z,68.51
2022-10-24T01:50:43.887Z,68.63
2022-10-24T01:53:10.248Z,68.72
2022-10-24T01:55:36.584Z,68.78
2022-10-24T01:58:02.936Z,68.83
2022-10-24T02:00:29.379Z,68.70
2022-10-24T02:02:55.613Z,68.80
2022-10-24T02:05:21.937Z,68.45
2022-10-24T02:07:48.279Z,68.28
2022-10-24T02:10:14.603Z,68.46
2022-10-24T02:12:41.061Z,68.60
2022-10-24T02:15:07.275Z,68.75
2022-10-24T02:17:33.617Z,69.05
2022-10-24T02:19:59.945Z,69.15
2022-10-24T02:22:26.266Z,69.01
2022-10-24T02:24:52.612Z,69.10
2022-10-24T02:27:18.944Z,69.10
2022-10-24T02:29:45.295Z,69.03
2022-10-24T02:32:11.652Z,69.23
2022-10-24T02:34:38.031Z,69.20
2022-10-24T02:37:04.434Z,69.03
2022-10-24T02:39:30.757Z,68.92
2022-10-24T02:41:57.089Z,69.08
2022-10-24T02:44:23.411Z,69.46
2022-10-24T02:46:49.751Z,69.58
2022-10-24T02:49:16.100Z,69.67
2022-10-24T02:51:42.416Z,69.93
2022-10-24T02:54:08.768Z,69.99
2022-10-24T02:56:35.121Z,70.19
2022-10-24T02:59:01.536Z,70.26
2022-10-24T03:01:27.900Z,70.39
2022-10-24T03:03:54.179Z,70.67
2022-10-24T03:06:20.517Z,70.72
2022-10-24T03:08:46.942Z,70.20
2022-10-24T03:11:13.232Z,70.17
2022-10-24T03:13:39.606Z,70.15
2022-10-24T03:16:07.860Z,70.23
2022-10-24T03:18:32.272Z,70.17
2022-10-24T03:20:58.584Z,70.25
2022-10-24T03:23:24.931Z,70.32
2022-10-24T03:25:51.268Z,70.46
2022-10-24T03:28:17.594Z,70.58
2022-10-24T03:30:43.983Z,70.72
2022-10-24T03:33:10.324Z,70.78
2022-10-24T03:35:36.663Z,70.62
2022-10-24T03:38:02.985Z,70.69
2022-10-24T03:40:29.330Z,70.67
2022-10-24T03:42:55.673Z,70.48
2022-10-24T03:45:21.991Z,70.37
2022-10-24T03:47:48.363Z,70.49
2022-10-24T03:50:14.788Z,70.69
2022-10-24T03:52:41.052Z,70.78
2022-10-24T03:55:07.401Z,71.01
2022-10-24T03:57:33.763Z,70.93
2022-10-24T04:00:00.088Z,70.93
2022-10-24T04:02:26.492Z,71.03
2022-10-24T04:04:52.836Z,71.13
2022-10-24T04:07:19.210Z,71.19
2022-10-24T04:09:45.494Z,71.02
2022-10-24T04:12:11.878Z,70.98
2022-10-24T04:14:38.195Z,70.81
2022-10-24T04:17:04.528Z,70.89
2022-10-24T04:19:30.868Z,71.10
2022-10-24T04:21:57.198Z,71.23
2022-10-24T04:24:23.566Z,71.29
2022-10-24T04:26:50.074Z,71.46
2022-10-24T04:29:16.328Z,71.52
2022-10-24T04:31:42.676Z,71.42
2022-10-24T04:34:08.992Z,71.55
2022-10-24T04:36:35.338Z,72.30
2022-10-24T04:39:01.784Z,83.43
2022-10-24T04:41:28.114Z,88.39
2022-10-24T04:43:54.449Z,91.44
2022-10-24T04:46:20.778Z,93.07
2022-10-24T04:48:47.095Z,93.53
2022-10-24T04:51:15.354Z,94.70
2022-10-24T04:53:39.799Z,94.93
2022-10-24T04:56:06.116Z,95.21
2022-10-24T04:58:32.462Z,95.15
2022-10-24T05:00:58.865Z,94.79
2022-10-24T05:03:25.152Z,94.51
2022-10-24T05:05:51.473Z,94.71
2022-10-24T05:08:17.850Z,85.01
2022-10-24T05:10:44.196Z,80.57
2022-10-24T05:13:10.550Z,78.52
2022-10-24T05:15:36.957Z,77.75
2022-10-24T05:18:03.294Z,77.99
2022-10-24T05:20:29.679Z,77.80
2022-10-24T05:22:55.952Z,77.93
2022-10-24T05:25:22.369Z,77.67
2022-10-24T05:27:48.748Z,77.42
2022-10-24T05:30:15.074Z,77.52
2022-10-24T05:32:41.431Z,77.88
2022-10-24T05:35:07.763Z,77.92
2022-10-24T05:37:34.089Z,77.91
2022-10-24T05:40:00.430Z,77.15
2022-10-24T05:42:26.750Z,76.96
2022-10-24T05:44:53.087Z,76.37
2022-10-24T05:47:19.411Z,76.60
2022-10-24T05:49:45.754Z,76.08
2022-10-24T05:52:12.088Z,75.73
2022-10-24T05:54:48.795Z,75.22
2022-10-24T05:57:04.760Z,74.96
2022-10-24T05:59:31.105Z,74.53
2022-10-24T06:01:57.615Z,73.97
2022-10-24T06:04:23.799Z,73.54
2022-10-24T06:06:50.131Z,74.02
2022-10-24T06:09:16.481Z,74.33
2022-10-24T06:11:42.817Z,73.94
2022-10-24T06:14:09.146Z,73.79
2022-10-24T06:16:35.468Z,74.24
2022-10-24T06:19:01.810Z,74.61
2022-10-24T06:21:28.157Z,74.07
2022-10-24T06:23:54.481Z,71.90
2022-10-24T06:26:23.911Z,70.87
2022-10-24T06:28:47.181Z,69.48
2022-10-24T06:31:13.498Z,69.81
2022-10-24T06:33:39.843Z,70.29
2022-10-24T06:36:06.163Z,70.14
2022-10-24T06:38:32.575Z,69.73
2022-10-24T06:40:58.927Z,70.16
2022-10-24T06:43:25.190Z,70.25
2022-10-24T06:45:51.538Z,69.67
2022-10-24T06:48:17.839Z,69.06
2022-10-24T06:50:44.161Z,67.13
2022-10-24T06:53:10.539Z,66.55
2022-10-24T06:55:36.821Z,66.15
2022-10-24T06:58:03.159Z,65.53
2022-10-24T07:00:29.497Z,64.98
2022-10-24T07:02:55.823Z,65.27
2022-10-24T07:05:22.187Z,64.37
2022-10-24T07:07:48.636Z,64.20
2022-10-24T07:10:14.887Z,64.55
2022-10-24T07:12:41.384Z,63.18
2022-10-24T07:15:07.564Z,63.86
2022-10-24T07:17:33.895Z,62.46
2022-10-24T07:20:00.240Z,63.06
2022-10-24T07:22:28.279Z,62.50
2022-10-24T07:24:52.970Z,61.85
2022-10-24T07:27:19.373Z,61.17
2022-10-24T07:29:45.712Z,62.09
2022-10-24T07:32:12.058Z,61.25
2022-10-24T07:34:38.405Z,59.23
2022-10-24T07:37:04.734Z,58.94
2022-10-24T07:39:31.074Z,59.47
2022-10-24T07:41:57.441Z,59.29
2022-10-24T07:44:23.777Z,60.09
2022-10-24T07:46:50.106Z,59.92
2022-10-24T07:49:16.426Z,58.38
2022-10-24T07:51:42.784Z,58.23
2022-10-24T07:54:09.127Z,56.25
2022-10-24T07:56:35.460Z,56.14
2022-10-24T07:59:09.163Z,56.56
2022-10-24T08:01:28.178Z,56.71
2022-10-24T08:03:54.422Z,56.86
2022-10-24T08:06:20.770Z,55.23
2022-10-24T08:08:47.114Z,55.66
2022-10-24T08:11:13.438Z,55.15
2022-10-24T08:13:39.780Z,54.38
2022-10-24T08:16:06.210Z,54.11
2022-10-24T08:18:35.766Z,53.43
2022-10-24T08:20:58.870Z,52.63
2022-10-24T08:23:25.667Z,52.72
2022-10-24T08:25:51.541Z,51.78
2022-10-24T08:28:17.908Z,51.92
2022-10-24T08:30:44.230Z,51.61
2022-10-24T08:33:10.569Z,50.49
2022-10-24T08:35:36.914Z,49.13
2022-10-24T08:38:03.262Z,50.64
2022-10-24T08:40:29.593Z,49.43
2022-10-24T08:42:55.916Z,48.35
2022-10-24T08:45:22.268Z,49.56
2022-10-24T08:47:48.614Z,47.30
2022-10-24T08:50:14.938Z,47.70
2022-10-24T08:52:41.294Z,46.99
2022-10-24T08:55:09.115Z,47.83
2022-10-24T09:00:00.299Z,46.96
2022-10-24T09:02:26.805Z,46.49
2022-10-24T09:04:53.021Z,46.59
2022-10-24T09:07:19.419Z,44.06
2022-10-24T09:09:45.687Z,44.10
2022-10-24T09:12:12.011Z,45.24
2022-10-24T09:14:38.354Z,44.73
2022-10-24T09:17:04.707Z,44.76
2022-10-24T09:19:31.033Z,43.40
2022-10-24T09:21:57.379Z,43.11
2022-10-24T09:24:23.720Z,43.04
2022-10-24T09:26:50.040Z,43.45
2022-10-24T09:29:16.369Z,43.03
2022-10-24T09:31:42.723Z,43.59
2022-10-24T09:34:09.038Z,43.03
2022-10-24T09:36:35.387Z,42.68
2022-10-24T09:39:01.723Z,41.27
2022-10-24T09:41:28.093Z,41.05
2022-10-24T09:43:54.457Z,41.02
2022-10-24T09:46:20.821Z,41.01
2022-10-24T09:48:47.100Z,40.75
2022-10-24T09:51:13.446Z,40.16
2022-10-24T09:53:39.773Z,39.94
2022-10-24T09:56:06.100Z,39.84
2022-10-24T09:58:32.465Z,39.34
2022-10-24T10:00:58.854Z,39.35
2022-10-24T10:03:25.110Z,39.15
2022-10-24T10:05:51.456Z,39.13
2022-10-24T10:08:17.803Z,37.93
2022-10-24T10:10:44.143Z,37.66
2022-10-24T10:13:10.475Z,37.63
2022-10-24T10:15:36.819Z,37.63
2022-10-24T10:18:03.139Z,36.12
2022-10-24T10:20:29.468Z,35.88
2022-10-24T10:22:55.793Z,37.16
2022-10-24T10:25:22.119Z,37.17
2022-10-24T10:27:48.503Z,37.03
2022-10-24T10:30:14.996Z,36.38
2022-10-24T10:32:41.122Z,35.80
2022-10-24T10:35:07.478Z,35.69
2022-10-24T10:37:33.838Z,36.39
2022-10-24T10:40:00.174Z,36.58
2022-10-24T10:42:26.525Z,35.57
2022-10-24T10:44:52.886Z,34.82
2022-10-24T10:47:21.718Z,34.68
2022-10-24T10:49:45.548Z,34.82
2022-10-24T10:52:11.911Z,35.09
2022-10-24T10:54:38.235Z,35.31
2022-10-24T10:57:04.586Z,34.93
2022-10-24T10:59:30.911Z,34.60
2022-10-24T11:01:57.410Z,34.36
2022-10-24T11:04:23.600Z,34.98
2022-10-24T11:06:50.056Z,35.41
2022-10-24T11:09:16.298Z,35.66
2022-10-24T11:11:42.622Z,34.81
2022-10-24T11:14:08.986Z,34.59
2022-10-24T11:16:35.350Z,34.42
2022-10-24T11:19:01.690Z,33.88
2022-10-24T11:21:28.040Z,34.18
2022-10-24T11:23:54.381Z,33.95
2022-10-24T11:26:20.731Z,33.54
2022-10-24T11:28:47.099Z,33.83
2022-10-24T11:31:13.460Z,34.22
2022-10-24T11:33:39.777Z,34.21
2022-10-24T11:36:06.157Z,34.28
2022-10-24T11:38:32.525Z,34.53
2022-10-24T11:40:59.926Z,34.11
2022-10-24T11:43:25.196Z,34.16
2022-10-24T11:45:51.530Z,34.09
2022-10-24T11:48:17.844Z,33.67
2022-10-24T11:50:44.191Z,34.00
2022-10-24T11:53:10.533Z,34.34
2022-10-24T11:55:36.883Z,34.01
2022-10-24T11:58:03.231Z,34.13
2022-10-24T12:00:29.569Z,34.28
2022-10-24T12:02:55.936Z,34.08
2022-10-24T12:05:22.236Z,34.27
2022-10-24T12:07:48.778Z,34.06
2022-10-24T12:10:14.917Z,34.24
2022-10-24T12:12:41.236Z,33.41
2022-10-24T12:15:07.591Z,34.04
2022-10-24T12:17:33.907Z,34.05
2022-10-24T12:20:00.235Z,34.04
2022-10-24T12:24:52.927Z,34.06
2022-10-24T12:27:19.284Z,34.21
2022-10-24T12:29:45.624Z,34.68
2022-10-24T12:32:11.964Z,34.06
2022-10-24T12:34:38.305Z,34.70
2022-10-24T12:37:04.624Z,34.48
2022-10-24T12:39:30.958Z,34.17
2022-10-24T12:41:57.308Z,34.42
2022-10-24T12:44:23.629Z,34.69
2022-10-24T12:46:50.009Z,34.96
2022-10-24T12:49:16.354Z,34.66
2022-10-24T12:51:42.684Z,34.47
2022-10-24T12:54:09.000Z,34.68
2022-10-24T12:56:35.416Z,34.44
2022-10-24T12:59:01.767Z,34.17
2022-10-24T13:01:28.227Z,34.70
2022-10-24T13:03:54.407Z,34.97
2022-10-24T13:06:20.761Z,34.93
2022-10-24T13:08:47.071Z,35.04
2022-10-24T13:11:13.419Z,35.22
2022-10-24T13:13:39.784Z,34.81
2022-10-24T13:16:06.150Z,34.81
2022-10-24T13:18:32.493Z,35.51
2022-10-24T13:20:58.854Z,35.40
2022-10-24T13:23:25.168Z,35.56
2022-10-24T13:25:51.513Z,35.40
2022-10-24T13:28:17.831Z,35.19
2022-10-24T13:30:46.047Z,35.73
2022-10-24T13:33:10.562Z,36.08
2022-10-24T13:35:36.913Z,36.41
2022-10-24T13:38:07.091Z,36.04
2022-10-24T13:40:29.555Z,36.47
2022-10-24T13:42:55.905Z,35.98
2022-10-24T13:45:22.248Z,36.82
2022-10-24T13:47:48.705Z,36.76
2022-10-24T13:50:14.915Z,36.78
2022-10-24T13:52:44.491Z,36.56
2022-10-24T13:55:07.632Z,36.99
2022-10-24T13:57:34.023Z,37.12
2022-10-24T14:00:00.419Z,37.09
2022-10-24T14:02:29.766Z,36.69
2022-10-24T14:04:57.439Z,37.32
2022-10-24T14:07:19.398Z,37.55
2022-10-24T14:09:45.779Z,37.80
2022-10-24T14:12:12.057Z,38.06
2022-10-24T14:14:38.405Z,38.32
2022-10-24T14:17:04.720Z,38.43
2022-10-24T14:19:32.542Z,39.09
2022-10-24T14:21:57.384Z,39.10
2022-10-24T14:24:23.738Z,38.88
2022-10-24T14:26:50.079Z,39.39
2022-10-24T14:29:16.447Z,39.94
2022-10-24T14:31:42.800Z,39.78
2022-10-24T14:34:09.124Z,39.74
2022-10-24T14:36:35.447Z,40.32
2022-10-24T14:39:01.823Z,40.79
2022-10-24T14:41:29.893Z,40.59
2022-10-24T14:43:54.570Z,40.73
2022-10-24T14:46:25.555Z,41.13
2022-10-24T14:48:47.259Z,41.43
2022-10-24T14:51:13.595Z,41.78
2022-10-24T14:53:40.009Z,42.29
2022-10-24T14:56:06.354Z,42.83
2022-10-24T14:58:32.703Z,42.76
2022-10-24T15:00:59.074Z,42.60
2022-10-24T15:03:25.387Z,42.87
2022-10-24T15:05:51.728Z,42.99
2022-10-24T15:08:22.766Z,43.18
2022-10-24T15:10:44.441Z,43.44
2022-10-24T15:13:10.760Z,43.81
2022-10-24T15:15:37.081Z,44.16
2022-10-24T15:18:03.457Z,44.40
2022-10-24T15:20:29.769Z,44.50
2022-10-24T15:22:56.115Z,44.71
2022-10-24T15:27:49.097Z,45.55
2022-10-24T15:30:15.096Z,45.81
2022-10-24T15:32:41.495Z,46.19
2022-10-24T15:35:07.843Z,46.38
2022-10-24T15:37:34.163Z,46.42
2022-10-24T15:40:00.501Z,46.73
2022-10-24T15:42:26.877Z,46.78
2022-10-24T15:44:53.193Z,47.17
2022-10-24T15:47:19.538Z,47.38
2022-10-24T15:49:45.883Z,47.68
2022-10-24T15:52:12.237Z,47.66
2022-10-24T15:54:38.562Z,47.73
2022-10-24T15:57:05.443Z,47.62
2022-10-24T15:59:31.262Z,47.60
2022-10-24T16:01:57.623Z,47.76
2022-10-24T16:04:23.936Z,47.86
2022-10-24T16:06:50.282Z,48.05
2022-10-24T16:09:16.591Z,48.06
2022-10-24T16:11:42.999Z,48.31
2022-10-24T16:14:09.265Z,48.37
2022-10-24T16:16:35.611Z,48.58
2022-10-24T16:19:01.965Z,48.57
2022-10-24T16:21:28.315Z,48.78
2022-10-24T16:23:55.151Z,48.80
2022-10-24T16:26:21.491Z,49.05
2022-10-24T16:28:47.856Z,49.20
2022-10-24T16:31:14.222Z,49.14
2022-10-24T16:33:40.559Z,49.19
2022-10-24T16:36:06.932Z,49.40
2022-10-24T16:38:33.288Z,49.69
2022-10-24T16:40:59.613Z,50.01
2022-10-24T16:43:25.958Z,50.54
2022-10-24T16:45:52.305Z,50.75
2022-10-24T16:48:18.658Z,51.00
2022-10-24T16:50:46.420Z,51.12
2022-10-24T16:53:11.432Z,51.14
2022-10-24T16:55:37.733Z,51.02
2022-10-24T16:58:04.075Z,51.36
2022-10-24T17:00:30.564Z,51.50
2022-10-24T17:02:56.757Z,51.71
2022-10-24T17:05:23.081Z,51.72
2022-10-24T17:07:49.539Z,51.94
2022-10-24T17:10:18.382Z,52.09
2022-10-24T17:12:42.168Z,52.31
2022-10-24T17:15:08.590Z,52.24
2022-10-24T17:17:34.915Z,52.23
2022-10-24T17:20:01.263Z,52.45
2022-10-24T17:22:27.665Z,52.60
2022-10-24T17:24:53.937Z,52.65
2022-10-24T17:27:20.322Z,52.77
2022-10-24T17:29:46.665Z,52.83
2022-10-24T17:32:13.173Z,53.10
2022-10-24T17:34:41.158Z,53.47
2022-10-24T17:37:07.506Z,53.81
2022-10-24T17:39:33.907Z,53.77
2022-10-24T17:42:00.236Z,53.77
2022-10-24T17:44:26.745Z,53.86
2022-10-24T17:46:56.024Z,54.17
2022-10-24T17:49:21.714Z,54.55
2022-10-24T17:51:45.771Z,54.67
2022-10-24T17:54:12.261Z,55.09
2022-10-24T17:56:38.579Z,55.30
2022-10-24T17:59:05.034Z,55.50
2022-10-24T18:01:31.456Z,55.63
2022-10-24T18:03:57.729Z,55.78
2022-10-24T18:06:24.032Z,55.66
2022-10-24T18:08:50.413Z,55.74
2022-10-24T18:11:16.755Z,55.41
2022-10-24T18:13:43.096Z,55.41
2022-10-24T18:16:09.464Z,55.34
2022-10-24T18:18:35.808Z,55.39
2022-10-24T18:21:02.147Z,56.33
2022-10-24T18:23:28.472Z,57.16
2022-10-24T18:25:54.795Z,56.99
2022-10-24T18:28:21.143Z,56.89
2022-10-24T18:30:47.521Z,57.09
2022-10-24T18:33:13.846Z,57.29
2022-10-24T18:35:40.240Z,57.00
2022-10-24T18:38:06.560Z,57.39
2022-10-24T18:40:32.923Z,57.81
2022-10-24T18:42:59.260Z,57.26
2022-10-24T18:45:25.585Z,57.44
2022-10-24T18:47:51.946Z,57.70
2022-10-24T18:50:18.250Z,58.03
2022-10-24T18:52:44.587Z,58.45
2022-10-24T18:55:10.937Z,58.36
2022-10-24T18:57:37.293Z,58.47
2022-10-24T19:00:03.629Z,58.11
2022-10-24T19:02:30.061Z,58.50
2022-10-24T19:04:56.298Z,58.47
2022-10-24T19:07:22.619Z,58.62
2022-10-24T19:09:48.966Z,58.95
2022-10-24T19:12:15.310Z,58.91
2022-10-24T19:14:41.646Z,59.11
2022-10-24T19:17:07.997Z,59.49
2022-10-24T19:19:34.632Z,59.40
2022-10-24T19:22:00.775Z,59.56
2022-10-24T19:24:27.046Z,59.72
2022-10-24T19:26:53.392Z,60.00
2022-10-24T19:29:19.768Z,59.85
2022-10-24T19:31:46.113Z,59.54
2022-10-24T19:34:12.455Z,59.25
2022-10-24T19:36:38.767Z,59.54
2022-10-24T19:39:05.117Z,59.78
2022-10-24T19:41:31.466Z,60.17
2022-10-24T19:43:57.852Z,60.06
2022-10-24T19:46:24.236Z,60.02
2022-10-24T19:48:50.558Z,59.78
2022-10-24T19:51:16.885Z,59.67
2022-10-24T19:53:43.239Z,59.66
2022-10-24T19:56:09.588Z,59.91
2022-10-24T19:58:35.994Z,60.15
2022-10-24T20:01:02.419Z,60.49
2022-10-24T20:03:28.714Z,60.29
2022-10-24T20:05:55.061Z,59.78
2022-10-24T20:08:21.412Z,59.47
2022-10-24T20:10:47.763Z,59.57
2022-10-24T20:13:14.149Z,59.70
2022-10-24T20:15:40.504Z,59.68
2022-10-24T20:18:06.849Z,59.56
2022-10-24T20:20:33.227Z,59.69
2022-10-24T20:22:59.550Z,59.55
2022-10-24T20:25:25.875Z,59.34
2022-10-24T20:27:52.218Z,59.39
2022-10-24T20:30:18.573Z,59.54
2022-10-24T20:32:44.938Z,59.74
2022-10-24T20:35:11.281Z,59.98
2022-10-24T20:37:37.641Z,60.05
2022-10-24T20:40:03.977Z,60.18
2022-10-24T20:42:30.315Z,60.24
2022-10-24T20:44:56.672Z,60.26
2022-10-24T20:47:23.016Z,60.76
2022-10-24T20:49:49.369Z,60.90
2022-10-24T20:52:15.719Z,60.98
2022-10-24T20:54:42.048Z,60.57
2022-10-24T20:57:08.365Z,60.89
2022-10-24T20:59:34.747Z,60.88
2022-10-24T21:02:01.196Z,60.94
2022-10-24T21:04:27.411Z,60.65
2022-10-24T21:06:53.755Z,60.80
2022-10-24T21:09:20.100Z,60.92
2022-10-24T21:11:46.448Z,61.34
2022-10-24T21:14:12.795Z,61.58
2022-10-24T21:16:39.137Z,61.71
2022-10-24T21:19:05.487Z,61.80
2022-10-24T21:21:31.820Z,61.80
2022-10-24T21:24:02.328Z,62.04
2022-10-24T21:26:24.488Z,62.35
2022-10-24T21:28:53.989Z,62.56
2022-10-24T21:31:17.149Z,62.74
2022-10-24T21:33:43.515Z,62.67
2022-10-24T21:36:09.849Z,62.69
2022-10-24T21:38:36.199Z,62.81
2022-10-24T21:41:02.517Z,62.76
2022-10-24T21:43:28.846Z,63.10
2022-10-24T21:45:55.207Z,63.14
2022-10-24T21:48:23.995Z,63.28
2022-10-24T21:50:47.894Z,63.28
2022-10-24T21:53:14.233Z,63.51
2022-10-24T21:55:40.552Z,63.78
2022-10-24T21:58:06.899Z,64.15
2022-10-24T22:00:35.640Z,64.47
2022-10-24T22:02:59.552Z,64.33
2022-10-24T22:05:25.909Z,64.48
2022-10-24T22:07:52.474Z,64.60
2022-10-24T22:10:18.554Z,64.73
2022-10-24T22:12:44.892Z,64.82
2022-10-24T22:15:11.231Z,65.12
2022-10-24T22:17:37.558Z,65.26
2022-10-24T22:20:03.876Z,65.35
2022-10-24T22:22:30.197Z,65.12
2022-10-24T22:24:56.579Z,64.89
2022-10-24T22:27:22.916Z,64.68
2022-10-24T22:29:49.254Z,64.72
2022-10-24T22:32:15.676Z,64.97
2022-10-24T22:34:41.997Z,65.25
2022-10-24T22:37:08.322Z,65.50
2022-10-24T22:39:34.640Z,65.67
2022-10-24T22:42:00.967Z,65.54
2022-10-24T22:44:27.316Z,65.30
2022-10-24T22:46:53.639Z,65.16
2022-10-24T22:49:19.996Z,64.96
2022-10-24T22:51:46.314Z,64.81
2022-10-24T22:54:12.649Z,65.08
2022-10-24T22:56:38.984Z,64.83
2022-10-24T22:59:05.305Z,64.91
2022-10-24T23:01:31.765Z,64.71
2022-10-24T23:03:57.980Z,64.46
2022-10-24T23:06:24.301Z,64.57
2022-10-24T23:08:50.647Z,64.72
2022-10-24T23:11:16.982Z,64.59
2022-10-24T23:13:43.303Z,64.48
2022-10-24T23:16:09.650Z,64.73
2022-10-24T23:18:35.991Z,64.76
2022-10-24T23:21:02.315Z,65.05
2022-10-24T23:23:29.747Z,65.45
2022-10-24T23:25:54.960Z,65.59
2022-10-24T23:28:21.288Z,65.81
2022-10-24T23:30:47.628Z,65.88
2022-10-24T23:33:13.969Z,66.30
2022-10-24T23:35:40.305Z,66.39
2022-10-24T23:38:06.649Z,66.68
2022-10-24T23:40:32.961Z,66.93
2022-10-24T23:42:59.313Z,66.64
2022-10-24T23:45:25.668Z,66.83
2022-10-24T23:47:51.990Z,67.03
2022-10-24T23:50:18.330Z,66.87
2022-10-24T23:52:44.876Z,67.07
2022-10-24T23:55:11.052Z,66.83
2022-10-24T23:57:37.378Z,66.95
